sensor_id;sensor_type;location;lat;lon;timestamp;P1;durP1;ratioP1;P2;durP2;ratioP2
16326;SDS011;34812;49.846;9.610;2024-01-30T00:04:30;7.87;;;6.97;;
16326;SDS011;34812;49.846;9.610;2024-01-30T00:09:33;9.07;;;6.43;;
16326;SDS011;34812;49.846;9.610;2024-01-30T00:14:36;6.03;;;5.53;;
16326;SDS011;34812;49.846;9.610;2024-01-30T00:19:38;6.00;;;5.13;;
16326;SDS011;34812;49.846;9.610;2024-01-30T00:24:41;10.17;;;5.57;;
16326;SDS011;34812;49.846;9.610;2024-01-30T00:29:43;5.87;;;4.63;;
16326;SDS011;34812;49.846;9.610;2024-01-30T00:34:45;6.07;;;4.73;;
16326;SDS011;34812;49.846;9.610;2024-01-30T00:39:49;9.47;;;5.57;;
16326;SDS011;34812;49.846;9.610;2024-01-30T00:44:51;7.40;;;4.87;;
16326;SDS011;34812;49.846;9.610;2024-01-30T00:49:53;9.27;;;5.80;;
16326;SDS011;34812;49.846;9.610;2024-01-30T00:54:56;9.07;;;4.87;;
16326;SDS011;34812;49.846;9.610;2024-01-30T00:59:59;7.97;;;6.03;;
16326;SDS011;34812;49.846;9.610;2024-01-30T01:05:01;11.57;;;5.37;;
16326;SDS011;34812;49.846;9.610;2024-01-30T01:10:05;5.07;;;4.60;;
16326;SDS011;34812;49.846;9.610;2024-01-30T01:15:07;5.97;;;5.57;;
16326;SDS011;34812;49.846;9.610;2024-01-30T01:20:10;8.63;;;5.20;;
16326;SDS011;34812;49.846;9.610;2024-01-30T01:25:14;6.30;;;5.07;;
16326;SDS011;34812;49.846;9.610;2024-01-30T01:30:16;7.83;;;5.03;;
16326;SDS011;34812;49.846;9.610;2024-01-30T01:35:21;7.10;;;4.57;;
16326;SDS011;34812;49.846;9.610;2024-01-30T01:40:26;7.27;;;5.73;;
16326;SDS011;34812;49.846;9.610;2024-01-30T01:45:28;5.30;;;4.80;;
16326;SDS011;34812;49.846;9.610;2024-01-30T01:50:30;6.43;;;4.50;;
16326;SDS011;34812;49.846;9.610;2024-01-30T01:55:34;6.30;;;5.80;;
16326;SDS011;34812;49.846;9.610;2024-01-30T02:00:36;4.73;;;4.37;;
16326;SDS011;34812;49.846;9.610;2024-01-30T02:05:40;5.00;;;4.50;;
16326;SDS011;34812;49.846;9.610;2024-01-30T02:10:44;12.53;;;5.37;;
16326;SDS011;34812;49.846;9.610;2024-01-30T02:15:48;4.73;;;4.20;;
16326;SDS011;34812;49.846;9.610;2024-01-30T02:20:51;6.90;;;5.03;;
16326;SDS011;34812;49.846;9.610;2024-01-30T02:25:55;5.97;;;5.47;;
16326;SDS011;34812;49.846;9.610;2024-01-30T02:30:57;5.57;;;4.80;;
16326;SDS011;34812;49.846;9.610;2024-01-30T02:35:59;5.40;;;4.23;;
16326;SDS011;34812;49.846;9.610;2024-01-30T02:41:03;6.60;;;4.87;;
16326;SDS011;34812;49.846;9.610;2024-01-30T02:46:05;5.50;;;3.93;;
16326;SDS011;34812;49.846;9.610;2024-01-30T02:51:07;5.70;;;3.93;;
16326;SDS011;34812;49.846;9.610;2024-01-30T02:56:11;4.87;;;4.27;;
16326;SDS011;34812;49.846;9.610;2024-01-30T03:01:13;7.43;;;3.83;;
16326;SDS011;34812;49.846;9.610;2024-01-30T03:06:15;4.67;;;4.30;;
16326;SDS011;34812;49.846;9.610;2024-01-30T03:11:21;5.10;;;4.60;;
16326;SDS011;34812;49.846;9.610;2024-01-30T03:16:23;4.23;;;3.90;;
16326;SDS011;34812;49.846;9.610;2024-01-30T03:21:25;5.57;;;5.07;;
16326;SDS011;34812;49.846;9.610;2024-01-30T03:26:29;5.33;;;4.93;;
16326;SDS011;34812;49.846;9.610;2024-01-30T03:31:31;9.47;;;4.87;;
16326;SDS011;34812;49.846;9.610;2024-01-30T03:36:33;7.20;;;5.00;;
16326;SDS011;34812;49.846;9.610;2024-01-30T03:41:36;6.00;;;3.90;;
16326;SDS011;34812;49.846;9.610;2024-01-30T03:46:38;8.17;;;5.03;;
16326;SDS011;34812;49.846;9.610;2024-01-30T03:51:40;7.77;;;5.37;;
16326;SDS011;34812;49.846;9.610;2024-01-30T03:56:44;5.80;;;5.30;;
16326;SDS011;34812;49.846;9.610;2024-01-30T04:01:46;4.87;;;4.53;;
16326;SDS011;34812;49.846;9.610;2024-01-30T04:06:48;3.07;;;2.80;;
16326;SDS011;34812;49.846;9.610;2024-01-30T04:11:51;4.50;;;4.13;;
16326;SDS011;34812;49.846;9.610;2024-01-30T04:16:53;4.33;;;3.87;;
16326;SDS011;34812;49.846;9.610;2024-01-30T04:21:55;5.00;;;4.60;;
16326;SDS011;34812;49.846;9.610;2024-01-30T04:26:59;5.67;;;4.97;;
16326;SDS011;34812;49.846;9.610;2024-01-30T04:32:01;6.67;;;5.60;;
16326;SDS011;34812;49.846;9.610;2024-01-30T04:37:03;6.30;;;5.20;;
16326;SDS011;34812;49.846;9.610;2024-01-30T04:42:07;5.47;;;4.73;;
16326;SDS011;34812;49.846;9.610;2024-01-30T04:47:09;4.83;;;3.73;;
16326;SDS011;34812;49.846;9.610;2024-01-30T04:52:12;3.73;;;3.43;;
16326;SDS011;34812;49.846;9.610;2024-01-30T04:57:15;4.73;;;4.23;;
16326;SDS011;34812;49.846;9.610;2024-01-30T05:02:17;4.97;;;4.60;;
16326;SDS011;34812;49.846;9.610;2024-01-30T05:07:19;4.13;;;3.77;;
16326;SDS011;34812;49.846;9.610;2024-01-30T05:12:23;4.73;;;4.40;;
16326;SDS011;34812;49.846;9.610;2024-01-30T05:17:25;3.50;;;3.20;;
16326;SDS011;34812;49.846;9.610;2024-01-30T05:22:27;5.23;;;4.53;;
16326;SDS011;34812;49.846;9.610;2024-01-30T05:27:30;8.93;;;5.27;;
16326;SDS011;34812;49.846;9.610;2024-01-30T05:32:32;4.93;;;4.53;;
16326;SDS011;34812;49.846;9.610;2024-01-30T05:37:35;4.43;;;4.07;;
16326;SDS011;34812;49.846;9.610;2024-01-30T05:42:38;5.10;;;4.70;;
16326;SDS011;34812;49.846;9.610;2024-01-30T05:47:40;5.63;;;4.70;;
16326;SDS011;34812;49.846;9.610;2024-01-30T05:52:42;5.20;;;3.93;;
16326;SDS011;34812;49.846;9.610;2024-01-30T05:57:45;3.43;;;3.20;;
16326;SDS011;34812;49.846;9.610;2024-01-30T06:02:48;22.87;;;12.37;;
16326;SDS011;34812;49.846;9.610;2024-01-30T06:07:50;8.50;;;7.70;;
16326;SDS011;34812;49.846;9.610;2024-01-30T06:12:53;16.10;;;10.67;;
16326;SDS011;34812;49.846;9.610;2024-01-30T06:17:55;17.60;;;12.77;;
16326;SDS011;34812;49.846;9.610;2024-01-30T06:22:57;16.23;;;12.27;;
16326;SDS011;34812;49.846;9.610;2024-01-30T06:28:01;7.73;;;6.70;;
16326;SDS011;34812;49.846;9.610;2024-01-30T06:33:03;8.87;;;7.77;;
16326;SDS011;34812;49.846;9.610;2024-01-30T06:38:05;10.73;;;6.17;;
16326;SDS011;34812;49.846;9.610;2024-01-30T06:43:09;7.83;;;7.13;;
16326;SDS011;34812;49.846;9.610;2024-01-30T06:48:11;6.03;;;5.43;;
16326;SDS011;34812;49.846;9.610;2024-01-30T06:53:13;6.40;;;5.80;;
16326;SDS011;34812;49.846;9.610;2024-01-30T06:58:16;9.30;;;5.93;;
16326;SDS011;34812;49.846;9.610;2024-01-30T07:03:19;7.40;;;5.50;;
16326;SDS011;34812;49.846;9.610;2024-01-30T07:08:21;6.47;;;5.90;;
16326;SDS011;34812;49.846;9.610;2024-01-30T07:13:25;6.30;;;5.20;;
16326;SDS011;34812;49.846;9.610;2024-01-30T07:18:28;7.90;;;7.10;;
16326;SDS011;34812;49.846;9.610;2024-01-30T07:23:30;7.10;;;6.40;;
16326;SDS011;34812;49.846;9.610;2024-01-30T07:28:35;7.67;;;6.97;;
16326;SDS011;34812;49.846;9.610;2024-01-30T07:33:38;11.80;;;8.93;;
16326;SDS011;34812;49.846;9.610;2024-01-30T07:38:40;9.37;;;7.73;;
16326;SDS011;34812;49.846;9.610;2024-01-30T07:43:43;8.40;;;7.27;;
16326;SDS011;34812;49.846;9.610;2024-01-30T07:48:46;9.47;;;7.87;;
16326;SDS011;34812;49.846;9.610;2024-01-30T07:53:48;7.97;;;7.17;;
16326;SDS011;34812;49.846;9.610;2024-01-30T07:58:51;6.97;;;5.97;;
16326;SDS011;34812;49.846;9.610;2024-01-30T08:03:54;7.57;;;6.63;;
16326;SDS011;34812;49.846;9.610;2024-01-30T08:08:56;6.90;;;6.23;;
16326;SDS011;34812;49.846;9.610;2024-01-30T08:14:00;26.20;;;7.03;;
16326;SDS011;34812;49.846;9.610;2024-01-30T08:19:02;9.20;;;6.30;;
16326;SDS011;34812;49.846;9.610;2024-01-30T08:24:05;6.93;;;6.17;;
16326;SDS011;34812;49.846;9.610;2024-01-30T08:29:09;9.23;;;6.77;;
16326;SDS011;34812;49.846;9.610;2024-01-30T08:34:11;9.13;;;6.37;;
16326;SDS011;34812;49.846;9.610;2024-01-30T08:39:13;8.33;;;6.03;;
16326;SDS011;34812;49.846;9.610;2024-01-30T08:44:16;7.97;;;6.37;;
16326;SDS011;34812;49.846;9.610;2024-01-30T08:49:19;9.77;;;6.10;;
16326;SDS011;34812;49.846;9.610;2024-01-30T08:54:21;10.27;;;6.10;;
16326;SDS011;34812;49.846;9.610;2024-01-30T08:59:25;5.50;;;4.97;;
16326;SDS011;34812;49.846;9.610;2024-01-30T09:04:27;9.93;;;6.37;;
16326;SDS011;34812;49.846;9.610;2024-01-30T09:09:29;6.43;;;5.93;;
16326;SDS011;34812;49.846;9.610;2024-01-30T09:14:32;8.37;;;6.17;;
16326;SDS011;34812;49.846;9.610;2024-01-30T09:19:35;7.53;;;4.93;;
16326;SDS011;34812;49.846;9.610;2024-01-30T09:24:37;6.13;;;5.20;;
16326;SDS011;34812;49.846;9.610;2024-01-30T09:29:40;6.10;;;5.60;;
16326;SDS011;34812;49.846;9.610;2024-01-30T09:34:42;6.43;;;5.77;;
16326;SDS011;34812;49.846;9.610;2024-01-30T09:39:44;6.40;;;5.23;;
16326;SDS011;34812;49.846;9.610;2024-01-30T09:44:48;5.30;;;4.80;;
16326;SDS011;34812;49.846;9.610;2024-01-30T09:49:52;4.87;;;4.47;;
16326;SDS011;34812;49.846;9.610;2024-01-30T09:54:55;8.10;;;4.87;;
16326;SDS011;34812;49.846;9.610;2024-01-30T09:59:58;4.77;;;4.27;;
16326;SDS011;34812;49.846;9.610;2024-01-30T10:05:00;5.07;;;4.57;;
16326;SDS011;34812;49.846;9.610;2024-01-30T10:10:04;6.07;;;5.07;;
16326;SDS011;34812;49.846;9.610;2024-01-30T10:15:08;6.90;;;4.90;;
16326;SDS011;34812;49.846;9.610;2024-01-30T10:20:11;6.47;;;4.83;;
16326;SDS011;34812;49.846;9.610;2024-01-30T10:25:13;5.57;;;5.00;;
16326;SDS011;34812;49.846;9.610;2024-01-30T10:30:16;5.77;;;4.70;;
16326;SDS011;34812;49.846;9.610;2024-01-30T10:35:19;7.10;;;5.37;;
16326;SDS011;34812;49.846;9.610;2024-01-30T10:40:21;9.20;;;5.17;;
16326;SDS011;34812;49.846;9.610;2024-01-30T10:45:25;7.90;;;5.23;;
16326;SDS011;34812;49.846;9.610;2024-01-30T10:50:28;9.37;;;7.90;;
16326;SDS011;34812;49.846;9.610;2024-01-30T10:55:33;5.57;;;5.07;;
16326;SDS011;34812;49.846;9.610;2024-01-30T11:00:36;5.30;;;4.57;;
16326;SDS011;34812;49.846;9.610;2024-01-30T11:05:40;5.60;;;4.03;;
16326;SDS011;34812;49.846;9.610;2024-01-30T11:10:46;8.30;;;4.77;;
16326;SDS011;34812;49.846;9.610;2024-01-30T11:15:49;5.47;;;4.67;;
16326;SDS011;34812;49.846;9.610;2024-01-30T11:20:51;7.60;;;5.20;;
16326;SDS011;34812;49.846;9.610;2024-01-30T11:25:54;6.87;;;5.27;;
16326;SDS011;34812;49.846;9.610;2024-01-30T11:31:03;9.47;;;4.97;;
16326;SDS011;34812;49.846;9.610;2024-01-30T11:36:07;9.23;;;5.93;;
16326;SDS011;34812;49.846;9.610;2024-01-30T11:41:10;8.63;;;5.03;;
16326;SDS011;34812;49.846;9.610;2024-01-30T11:46:13;10.60;;;5.30;;
16326;SDS011;34812;49.846;9.610;2024-01-30T11:51:15;9.60;;;4.83;;
16326;SDS011;34812;49.846;9.610;2024-01-30T11:56:20;6.87;;;5.43;;
16326;SDS011;34812;49.846;9.610;2024-01-30T12:01:23;7.63;;;5.43;;
16326;SDS011;34812;49.846;9.610;2024-01-30T12:06:25;7.93;;;4.90;;
16326;SDS011;34812;49.846;9.610;2024-01-30T12:11:27;5.43;;;4.77;;
16326;SDS011;34812;49.846;9.610;2024-01-30T12:16:31;10.43;;;5.07;;
16326;SDS011;34812;49.846;9.610;2024-01-30T12:21:33;6.63;;;4.50;;
16326;SDS011;34812;49.846;9.610;2024-01-30T12:26:36;8.40;;;5.30;;
16326;SDS011;34812;49.846;9.610;2024-01-30T12:31:41;10.30;;;4.60;;
16326;SDS011;34812;49.846;9.610;2024-01-30T12:36:43;11.37;;;4.83;;
16326;SDS011;34812;49.846;9.610;2024-01-30T12:41:45;7.73;;;4.97;;
16326;SDS011;34812;49.846;9.610;2024-01-30T12:46:49;5.40;;;4.30;;
16326;SDS011;34812;49.846;9.610;2024-01-30T12:51:51;8.27;;;5.17;;
16326;SDS011;34812;49.846;9.610;2024-01-30T12:56:53;7.37;;;5.33;;
16326;SDS011;34812;49.846;9.610;2024-01-30T13:01:58;9.97;;;5.53;;
16326;SDS011;34812;49.846;9.610;2024-01-30T13:07:00;9.73;;;4.80;;
16326;SDS011;34812;49.846;9.610;2024-01-30T13:12:03;8.07;;;5.13;;
16326;SDS011;34812;49.846;9.610;2024-01-30T13:17:06;7.43;;;4.87;;
16326;SDS011;34812;49.846;9.610;2024-01-30T13:22:09;8.30;;;5.03;;
16326;SDS011;34812;49.846;9.610;2024-01-30T13:27:11;8.20;;;4.87;;
16326;SDS011;34812;49.846;9.610;2024-01-30T13:32:14;7.07;;;4.87;;
16326;SDS011;34812;49.846;9.610;2024-01-30T13:37:16;18.47;;;5.70;;
16326;SDS011;34812;49.846;9.610;2024-01-30T13:42:19;6.57;;;4.87;;
16326;SDS011;34812;49.846;9.610;2024-01-30T13:47:22;8.63;;;5.53;;
16326;SDS011;34812;49.846;9.610;2024-01-30T13:52:25;8.77;;;4.87;;
16326;SDS011;34812;49.846;9.610;2024-01-30T13:57:27;10.57;;;5.73;;
16326;SDS011;34812;49.846;9.610;2024-01-30T14:02:34;8.70;;;5.90;;
16326;SDS011;34812;49.846;9.610;2024-01-30T14:07:36;8.30;;;5.10;;
16326;SDS011;34812;49.846;9.610;2024-01-30T14:12:41;11.37;;;5.60;;
16326;SDS011;34812;49.846;9.610;2024-01-30T14:17:45;7.53;;;5.83;;
16326;SDS011;34812;49.846;9.610;2024-01-30T14:22:48;10.63;;;6.80;;
16326;SDS011;34812;49.846;9.610;2024-01-30T14:27:51;9.13;;;5.77;;
16326;SDS011;34812;49.846;9.610;2024-01-30T14:32:55;11.70;;;5.93;;
16326;SDS011;34812;49.846;9.610;2024-01-30T14:37:57;6.90;;;6.10;;
16326;SDS011;34812;49.846;9.610;2024-01-30T14:42:59;6.00;;;5.13;;
16326;SDS011;34812;49.846;9.610;2024-01-30T14:48:02;8.90;;;5.40;;
16326;SDS011;34812;49.846;9.610;2024-01-30T14:53:05;15.73;;;6.37;;
16326;SDS011;34812;49.846;9.610;2024-01-30T14:58:08;6.67;;;5.20;;
16326;SDS011;34812;49.846;9.610;2024-01-30T15:03:12;6.03;;;4.63;;
16326;SDS011;34812;49.846;9.610;2024-01-30T15:08:14;9.73;;;5.57;;
16326;SDS011;34812;49.846;9.610;2024-01-30T15:13:16;7.20;;;5.43;;
16326;SDS011;34812;49.846;9.610;2024-01-30T15:18:19;11.00;;;7.20;;
16326;SDS011;34812;49.846;9.610;2024-01-30T15:23:22;6.63;;;5.13;;
16326;SDS011;34812;49.846;9.610;2024-01-30T15:28:33;7.23;;;5.10;;
16326;SDS011;34812;49.846;9.610;2024-01-30T15:33:37;9.80;;;7.07;;
16326;SDS011;34812;49.846;9.610;2024-01-30T15:38:40;6.97;;;5.73;;
16326;SDS011;34812;49.846;9.610;2024-01-30T15:43:42;7.60;;;6.30;;
16326;SDS011;34812;49.846;9.610;2024-01-30T15:48:45;6.63;;;5.63;;
16326;SDS011;34812;49.846;9.610;2024-01-30T15:53:48;11.23;;;6.63;;
16326;SDS011;34812;49.846;9.610;2024-01-30T15:58:50;11.03;;;7.80;;
16326;SDS011;34812;49.846;9.610;2024-01-30T16:03:53;9.87;;;7.93;;
16326;SDS011;34812;49.846;9.610;2024-01-30T16:08:56;12.37;;;7.33;;
16326;SDS011;34812;49.846;9.610;2024-01-30T16:13:58;9.20;;;6.47;;
16326;SDS011;34812;49.846;9.610;2024-01-30T16:19:01;9.90;;;6.23;;
16326;SDS011;34812;49.846;9.610;2024-01-30T16:24:04;8.40;;;6.30;;
16326;SDS011;34812;49.846;9.610;2024-01-30T16:29:06;9.60;;;6.73;;
16326;SDS011;34812;49.846;9.610;2024-01-30T16:34:09;8.03;;;5.77;;
16326;SDS011;34812;49.846;9.610;2024-01-30T16:39:11;8.63;;;7.33;;
16326;SDS011;34812;49.846;9.610;2024-01-30T16:44:14;16.57;;;7.00;;
16326;SDS011;34812;49.846;9.610;2024-01-30T16:49:17;10.80;;;8.63;;
16326;SDS011;34812;49.846;9.610;2024-01-30T16:54:19;19.53;;;12.33;;
16326;SDS011;34812;49.846;9.610;2024-01-30T16:59:21;25.87;;;15.37;;
16326;SDS011;34812;49.846;9.610;2024-01-30T17:04:25;12.17;;;7.60;;
16326;SDS011;34812;49.846;9.610;2024-01-30T17:09:27;16.60;;;8.37;;
16326;SDS011;34812;49.846;9.610;2024-01-30T17:14:30;10.67;;;8.87;;
16326;SDS011;34812;49.846;9.610;2024-01-30T17:19:36;13.27;;;8.47;;
16326;SDS011;34812;49.846;9.610;2024-01-30T17:24:38;14.83;;;9.83;;
16326;SDS011;34812;49.846;9.610;2024-01-30T17:29:40;16.07;;;9.40;;
16326;SDS011;34812;49.846;9.610;2024-01-30T17:34:44;12.47;;;9.63;;
16326;SDS011;34812;49.846;9.610;2024-01-30T17:39:46;11.83;;;9.10;;
16326;SDS011;34812;49.846;9.610;2024-01-30T17:44:48;14.70;;;7.37;;
16326;SDS011;34812;49.846;9.610;2024-01-30T17:49:51;11.33;;;8.30;;
16326;SDS011;34812;49.846;9.610;2024-01-30T17:54:54;36.60;;;19.83;;
16326;SDS011;34812;49.846;9.610;2024-01-30T17:59:56;11.23;;;7.93;;
16326;SDS011;34812;49.846;9.610;2024-01-30T18:04:59;12.63;;;9.10;;
16326;SDS011;34812;49.846;9.610;2024-01-30T18:10:01;10.27;;;8.10;;
16326;SDS011;34812;49.846;9.610;2024-01-30T18:15:04;13.67;;;9.10;;
16326;SDS011;34812;49.846;9.610;2024-01-30T18:20:08;8.13;;;7.00;;
16326;SDS011;34812;49.846;9.610;2024-01-30T18:25:10;16.97;;;10.23;;
16326;SDS011;34812;49.846;9.610;2024-01-30T18:30:12;17.10;;;10.90;;
16326;SDS011;34812;49.846;9.610;2024-01-30T18:35:16;18.63;;;11.97;;
16326;SDS011;34812;49.846;9.610;2024-01-30T18:40:18;20.87;;;11.50;;
16326;SDS011;34812;49.846;9.610;2024-01-30T18:45:20;21.27;;;13.27;;
16326;SDS011;34812;49.846;9.610;2024-01-30T18:50:24;16.30;;;10.27;;
16326;SDS011;34812;49.846;9.610;2024-01-30T18:55:26;22.50;;;12.83;;
16326;SDS011;34812;49.846;9.610;2024-01-30T19:00:28;22.87;;;11.10;;
16326;SDS011;34812;49.846;9.610;2024-01-30T19:05:31;16.30;;;9.60;;
16326;SDS011;34812;49.846;9.610;2024-01-30T19:10:34;20.90;;;11.30;;
16326;SDS011;34812;49.846;9.610;2024-01-30T19:15:36;15.57;;;9.37;;
16326;SDS011;34812;49.846;9.610;2024-01-30T19:20:39;19.63;;;10.83;;
16326;SDS011;34812;49.846;9.610;2024-01-30T19:25:42;19.97;;;11.77;;
16326;SDS011;34812;49.846;9.610;2024-01-30T19:30:45;15.93;;;10.63;;
16326;SDS011;34812;49.846;9.610;2024-01-30T19:35:48;13.40;;;9.40;;
16326;SDS011;34812;49.846;9.610;2024-01-30T19:40:50;13.93;;;9.13;;
16326;SDS011;34812;49.846;9.610;2024-01-30T19:45:52;30.77;;;14.27;;
16326;SDS011;34812;49.846;9.610;2024-01-30T19:50:56;42.67;;;16.17;;
16326;SDS011;34812;49.846;9.610;2024-01-30T19:55:58;46.53;;;26.90;;
16326;SDS011;34812;49.846;9.610;2024-01-30T20:01:00;18.70;;;12.80;;
16326;SDS011;34812;49.846;9.610;2024-01-30T20:06:04;16.97;;;11.70;;
16326;SDS011;34812;49.846;9.610;2024-01-30T20:11:11;20.53;;;11.53;;
16326;SDS011;34812;49.846;9.610;2024-01-30T20:16:14;15.33;;;9.27;;
16326;SDS011;34812;49.846;9.610;2024-01-30T20:21:17;12.97;;;9.20;;
16326;SDS011;34812;49.846;9.610;2024-01-30T20:26:19;15.40;;;9.80;;
16326;SDS011;34812;49.846;9.610;2024-01-30T20:31:21;14.60;;;9.80;;
16326;SDS011;34812;49.846;9.610;2024-01-30T20:36:25;13.33;;;9.47;;
16326;SDS011;34812;49.846;9.610;2024-01-30T20:41:27;11.20;;;8.97;;
16326;SDS011;34812;49.846;9.610;2024-01-30T20:46:29;17.57;;;10.90;;
16326;SDS011;34812;49.846;9.610;2024-01-30T20:51:32;16.50;;;11.30;;
16326;SDS011;34812;49.846;9.610;2024-01-30T20:56:34;18.33;;;11.13;;
16326;SDS011;34812;49.846;9.610;2024-01-30T21:01:37;16.07;;;9.13;;
16326;SDS011;34812;49.846;9.610;2024-01-30T21:06:40;11.10;;;8.93;;
16326;SDS011;34812;49.846;9.610;2024-01-30T21:11:42;19.10;;;11.80;;
16326;SDS011;34812;49.846;9.610;2024-01-30T21:16:44;23.57;;;14.43;;
16326;SDS011;34812;49.846;9.610;2024-01-30T21:21:48;14.70;;;9.33;;
16326;SDS011;34812;49.846;9.610;2024-01-30T21:26:50;12.60;;;8.63;;
16326;SDS011;34812;49.846;9.610;2024-01-30T21:31:52;13.80;;;8.53;;
16326;SDS011;34812;49.846;9.610;2024-01-30T21:36:55;12.10;;;8.00;;
16326;SDS011;34812;49.846;9.610;2024-01-30T21:41:57;10.60;;;7.73;;
16326;SDS011;34812;49.846;9.610;2024-01-30T21:46:59;18.20;;;8.63;;
16326;SDS011;34812;49.846;9.610;2024-01-30T21:52:03;13.73;;;9.17;;
16326;SDS011;34812;49.846;9.610;2024-01-30T21:57:05;12.30;;;8.17;;
16326;SDS011;34812;49.846;9.610;2024-01-30T22:02:08;14.30;;;9.13;;
16326;SDS011;34812;49.846;9.610;2024-01-30T22:07:11;14.00;;;8.57;;
16326;SDS011;34812;49.846;9.610;2024-01-30T22:12:13;8.90;;;7.27;;
16326;SDS011;34812;49.846;9.610;2024-01-30T22:17:16;11.93;;;6.87;;
16326;SDS011;34812;49.846;9.610;2024-01-30T22:22:19;11.87;;;9.13;;
16326;SDS011;34812;49.846;9.610;2024-01-30T22:27:21;12.17;;;9.60;;
16326;SDS011;34812;49.846;9.610;2024-01-30T22:32:23;15.80;;;8.47;;
16326;SDS011;34812;49.846;9.610;2024-01-30T22:37:27;11.87;;;7.73;;
16326;SDS011;34812;49.846;9.610;2024-01-30T22:42:29;13.80;;;8.50;;
16326;SDS011;34812;49.846;9.610;2024-01-30T22:47:31;11.73;;;9.70;;
16326;SDS011;34812;49.846;9.610;2024-01-30T22:52:35;10.70;;;7.83;;
16326;SDS011;34812;49.846;9.610;2024-01-30T22:57:37;10.80;;;9.07;;
16326;SDS011;34812;49.846;9.610;2024-01-30T23:02:39;13.03;;;6.87;;
16326;SDS011;34812;49.846;9.610;2024-01-30T23:07:43;9.23;;;7.47;;
16326;SDS011;34812;49.846;9.610;2024-01-30T23:12:45;11.23;;;8.57;;
16326;SDS011;34812;49.846;9.610;2024-01-30T23:17:47;10.67;;;8.77;;
16326;SDS011;34812;49.846;9.610;2024-01-30T23:22:51;9.30;;;7.87;;
16326;SDS011;34812;49.846;9.610;2024-01-30T23:27:53;11.17;;;8.93;;
16326;SDS011;34812;49.846;9.610;2024-01-30T23:32:55;10.23;;;8.30;;
16326;SDS011;34812;49.846;9.610;2024-01-30T23:37:58;13.77;;;9.17;;
16326;SDS011;34812;49.846;9.610;2024-01-30T23:43:00;12.13;;;9.17;;
16326;SDS011;34812;49.846;9.610;2024-01-30T23:48:03;10.40;;;8.40;;
16326;SDS011;34812;49.846;9.610;2024-01-30T23:53:06;12.27;;;9.83;;
16326;SDS011;34812;49.846;9.610;2024-01-30T23:58:08;12.23;;;9.07;;
